Time;durP1;ratioP1;P1;durP2;ratioP2;P2;SDS_P1;SDS_P2;PMS_P1;PMS_P2;Temp;Humidity;BMP_temperature;BMP_pressure;BME280_temperature;BME280_humidity;BME280_pressure;Samples;Min_cycle;Max_cycle;Signal;HPM_P1;HPM_P2
2023/05/04 11:10:07;;;;;;;;;;;15.70;75.60;;;;;;6238237;22;19926;-85
2023/05/04 11:12:33;;;;;;;;;;;15.70;75.80;;;;;;6238651;23;19912;-81
2023/05/04 11:15:11;;;;;;;;;;;15.70;76.20;;;;;;6212341;23;19923;-77
2023/05/04 11:17:50;;;;;;;;;;;15.60;76.50;;;;;;6238838;22;19918;-80
2023/05/04 11:20:20;;;;;;;;;;;15.60;76.50;;;;;;6240614;23;19908;-76
2023/05/04 11:22:47;;;;;;;;;;;15.50;76.80;;;;;;6213449;23;19914;-77
2023/05/04 11:25:15;;;;;;;;;;;15.40;77.20;;;;;;6239665;23;19994;-76
2023/05/04 11:27:43;;;;;;;;;;;15.40;77.60;;;;;;6239039;22;19961;-75
2023/05/04 11:30:09;;;;;;;;;;;15.40;77.80;;;;;;6238890;23;19998;-76
2023/05/04 11:32:37;;;;;;;;;;;15.40;77.90;;;;;;6239784;23;19912;-76
2023/05/04 11:35:04;;;;;;;;;;;15.40;77.90;;;;;;6212641;23;19912;-77
2023/05/04 11:37:37;;;;;;;;;;;15.40;78.00;;;;;;6239266;22;19982;-76
2023/05/04 11:40:07;;;;;;;;;;;15.40;78.00;;;;;;6233663;23;19915;-78
2023/05/04 11:42:35;;;;;;;;;;;15.30;78.10;;;;;;6240159;23;19916;-75
2023/05/04 11:45:01;;;;;;;;;;;15.30;78.30;;;;;;6240049;23;19907;-76
2023/05/04 11:47:28;;;;;;;;;;;15.30;78.30;;;;;;6213182;23;20330;-77
2023/05/04 11:49:55;;;;;;;;;;;15.30;78.40;;;;;;6238279;23;19904;-73
2023/05/04 11:52:24;;;;;;;;;;;15.30;78.70;;;;;;6236079;23;19930;-76
2023/05/04 11:54:57;;;;;;;;;;;15.30;79.70;;;;;;6239136;23;19935;-73
2023/05/04 11:57:24;;;;;;;;;;;15.30;80.10;;;;;;6236859;22;19918;-73
2023/05/04 11:59:50;;;;;;;;;;;15.30;80.00;;;;;;6237602;23;19930;-73
2023/05/04 12:02:17;;;;;;;;;;;15.40;79.80;;;;;;6239721;23;19908;-73
2023/05/04 12:04:44;;;;;;;;;;;15.40;79.80;;;;;;6238277;23;19939;-73
2023/05/04 12:07:11;;;;;;;;;;;15.30;80.10;;;;;;6240056;22;19908;-75
2023/05/04 12:09:47;;;;;;;;;;;15.30;79.80;;;;;;6235733;22;19946;-75
2023/05/04 12:12:17;;;;;;;;;;;15.30;79.90;;;;;;6239170;23;19907;-74
2023/05/04 12:14:48;;;;;;;;;;;15.30;79.90;;;;;;6239235;23;19908;-74
2023/05/04 12:17:15;;;;;;;;;;;15.20;80.00;;;;;;6241813;22;19920;-73
2023/05/04 12:19:48;;;;;;;;;;;15.20;80.00;;;;;;6242620;23;19935;-73
2023/05/04 12:22:16;;;;;;;;;;;15.20;79.40;;;;;;6242642;23;19934;-73
2023/05/04 12:24:42;;;;;;;;;;;15.20;79.00;;;;;;6215725;23;19965;-73
2023/05/04 12:27:15;;;;;;;;;;;15.20;78.90;;;;;;6243923;22;20438;-73
2023/05/04 12:29:42;;;;;;;;;;;15.20;78.70;;;;;;6244838;23;20334;-72
2023/05/04 12:32:09;;;;;;;;;;;15.20;78.50;;;;;;6245100;23;19958;-73
2023/05/04 12:34:37;;;;;;;;;;;15.20;78.90;;;;;;6244551;23;19911;-73
2023/05/04 12:37:03;;;;;;;;;;;15.20;78.80;;;;;;6244222;22;19969;-72
2023/05/04 12:39:31;;;;;;;;;;;15.10;79.00;;;;;;6238787;23;19938;-73
2023/05/04 12:41:58;;;;;;;;;;;15.10;78.80;;;;;;6243648;23;19910;-73
2023/05/04 12:44:25;;;;;;;;;;;15.10;79.00;;;;;;6243770;23;19908;-72
2023/05/04 12:46:52;;;;;;;;;;;15.00;79.00;;;;;;6244470;22;19919;-72
2023/05/04 12:49:18;;;;;;;;;;;15.00;79.10;;;;;;6243787;23;19966;-72
2023/05/04 12:51:45;;;;;;;;;;;14.90;79.10;;;;;;6245201;23;19982;-72
2023/05/04 12:54:12;;;;;;;;;;;14.90;79.20;;;;;;6245195;23;19908;-73
2023/05/04 12:56:38;;;;;;;;;;;14.90;79.20;;;;;;6243518;23;19957;-74
2023/05/04 12:59:05;;;;;;;;;;;14.90;79.30;;;;;;6243750;22;19990;-74
2023/05/04 13:01:32;;;;;;;;;;;14.80;79.20;;;;;;6243750;23;19939;-74
2023/05/04 13:03:59;;;;;;;;;;;14.90;79.60;;;;;;6244533;23;19915;-73
2023/05/04 13:06:25;;;;;;;;;;;14.90;79.20;;;;;;6244333;23;19907;-74
2023/05/04 13:08:52;;;;;;;;;;;14.80;79.60;;;;;;6245243;22;20281;-73
2023/05/04 13:11:19;;;;;;;;;;;14.90;79.90;;;;;;6240431;23;20380;-74
2023/05/04 13:13:46;;;;;;;;;;;14.80;79.90;;;;;;6244038;23;19911;-74
2023/05/04 13:16:13;;;;;;;;;;;14.80;79.60;;;;;;6216428;23;19927;-74
2023/05/04 13:18:39;;;;;;;;;;;14.80;79.90;;;;;;6243111;22;19947;-74
2023/05/04 13:21:06;;;;;;;;;;;14.80;79.80;;;;;;6243679;23;19904;-73
2023/05/04 13:23:33;;;;;;;;;;;14.80;79.60;;;;;;6243848;23;19908;-74
2023/05/04 13:26:00;;;;;;;;;;;14.80;79.60;;;;;;6244544;23;20327;-74
2023/05/04 13:28:28;;;;;;;;;;;14.70;79.30;;;;;;6242762;22;19907;-75
2023/05/04 13:30:55;;;;;;;;;;;14.70;79.40;;;;;;6244003;23;20277;-75
2023/05/04 13:33:22;;;;;;;;;;;14.70;79.30;;;;;;6242853;23;19904;-76
2023/05/04 13:35:48;;;;;;;;;;;14.70;79.60;;;;;;6243188;23;20169;-74
2023/05/04 13:38:15;;;;;;;;;;;14.60;80.10;;;;;;6243011;22;19912;-74
2023/05/04 13:40:42;;;;;;;;;;;14.50;80.10;;;;;;6239316;23;19904;-74
2023/05/04 13:43:09;;;;;;;;;;;14.50;79.90;;;;;;6242891;23;19911;-73
2023/05/04 13:45:36;;;;;;;;;;;14.60;79.40;;;;;;6242879;23;19911;-73
2023/05/04 13:48:03;;;;;;;;;;;14.60;79.50;;;;;;6243965;22;20247;-74
2023/05/04 13:50:30;;;;;;;;;;;14.60;79.60;;;;;;6242193;23;19908;-73
2023/05/04 13:52:57;;;;;;;;;;;14.50;79.00;;;;;;6243447;23;19910;-74
2023/05/04 13:55:24;;;;;;;;;;;14.60;78.70;;;;;;6244309;23;19908;-74
2023/05/04 13:57:52;;;;;;;;;;;14.50;79.10;;;;;;6244010;22;19966;-73
2023/05/04 14:00:19;;;;;;;;;;;14.50;79.10;;;;;;6243950;23;19908;-76
2023/05/04 14:02:46;;;;;;;;;;;14.50;79.40;;;;;;6217732;23;19908;-75
2023/05/04 14:05:13;;;;;;;;;;;14.40;79.30;;;;;;6216697;23;19935;-75
2023/05/04 14:07:39;;;;;;;;;;;14.40;79.40;;;;;;6244895;22;19915;-75
2023/05/04 14:10:06;;;;;;;;;;;14.40;79.80;;;;;;6240195;22;19916;-74
2023/05/04 14:12:33;;;;;;;;;;;14.40;79.50;;;;;;6243206;23;19934;-75
2023/05/04 14:15:00;;;;;;;;;;;14.40;79.70;;;;;;6243641;23;19904;-75
2023/05/04 14:17:27;;;;;;;;;;;14.50;79.90;;;;;;6243720;22;19912;-75
2023/05/04 14:19:54;;;;;;;;;;;14.50;80.30;;;;;;6242982;23;19904;-74
2023/05/04 14:22:20;;;;;;;;;;;14.40;80.10;;;;;;6242511;23;19911;-74
2023/05/04 14:24:48;;;;;;;;;;;14.40;80.00;;;;;;6243205;23;19904;-74
2023/05/04 14:27:16;;;;;;;;;;;14.50;79.60;;;;;;6243581;22;19904;-75
2023/05/04 14:29:43;;;;;;;;;;;14.40;79.60;;;;;;6216002;23;19935;-75
2023/05/04 14:32:09;;;;;;;;;;;14.50;79.70;;;;;;6243833;23;20243;-75
2023/05/04 14:34:36;;;;;;;;;;;14.40;79.90;;;;;;6243801;23;19904;-75
2023/05/04 14:37:03;;;;;;;;;;;14.40;79.60;;;;;;6241593;22;19919;-75
2023/05/04 14:39:29;;;;;;;;;;;14.40;79.70;;;;;;6244234;23;19904;-75
2023/05/04 14:41:56;;;;;;;;;;;14.40;80.00;;;;;;6243573;23;20238;-73
2023/05/04 14:44:24;;;;;;;;;;;14.30;79.80;;;;;;6243643;23;19910;-72
2023/05/04 14:46:51;;;;;;;;;;;14.30;79.80;;;;;;6243576;22;19910;-71
2023/05/04 14:49:19;;;;;;;;;;;14.30;79.80;;;;;;6243434;23;19904;-72
2023/05/04 14:51:47;;;;;;;;;;;14.30;79.90;;;;;;6216287;23;19904;-72
2023/05/04 14:54:13;;;;;;;;;;;14.20;79.90;;;;;;6217408;23;19918;-71
2023/05/04 14:56:40;;;;;;;;;;;14.20;80.10;;;;;;6217331;23;19935;-72
2023/05/04 14:59:07;;;;;;;;;;;14.20;80.40;;;;;;6243948;22;19943;-72
2023/05/04 15:01:33;;;;;;;;;;;14.20;80.50;;;;;;6242530;23;19925;-72
2023/05/04 15:04:00;;;;;;;;;;;14.20;80.60;;;;;;6242157;23;19903;-72
2023/05/04 15:06:31;;;;;;;;;;;14.20;80.50;;;;;;6242081;23;20330;-72
2023/05/04 15:08:58;;;;;;;;;;;14.20;81.00;;;;;;6242186;22;19923;-76
2023/05/04 23:20:39;;;;;;;;;;;14.30;80.10;;;;;;6241669;23;19934;-76
2023/05/04 23:23:06;;;;;;;;;;;14.30;80.00;;;;;;6241156;23;19912;-74
2023/05/04 23:25:33;;;;;;;;;;;14.30;79.90;;;;;;6244665;23;19949;-74
2023/05/04 23:27:59;;;;;;;;;;;14.30;79.90;;;;;;6217843;23;19958;-74
2023/05/04 23:30:26;;;;;;;;;;;14.40;79.70;;;;;;6244293;23;19911;-77
2023/05/04 23:32:53;;;;;;;;;;;14.40;80.10;;;;;;6244282;23;19903;-77
2023/05/04 23:35:20;;;;;;;;;;;14.50;80.30;;;;;;6243049;23;19903;-76
2023/05/04 23:37:46;;;;;;;;;;;14.50;80.30;;;;;;6217597;23;19911;-76
2023/05/04 23:40:13;;;;;;;;;;;14.50;80.20;;;;;;6244496;23;19904;-80
2023/05/04 23:42:40;;;;;;;;;;;14.50;80.10;;;;;;6244358;23;19904;-77
2023/05/04 23:45:07;;;;;;;;;;;14.60;80.30;;;;;;6244556;23;19903;-79
2023/05/04 23:47:33;;;;;;;;;;;14.70;80.30;;;;;;6244069;22;19904;-76
2023/05/04 23:50:00;;;;;;;;;;;14.70;80.30;;;;;;6244412;23;19908;-76
2023/05/04 23:52:27;;;;;;;;;;;14.70;80.00;;;;;;6244110;23;20212;-77
2023/05/04 23:54:53;;;;;;;;;;;14.70;80.00;;;;;;6244462;23;20314;-77
2023/05/04 23:57:20;;;;;;;;;;;14.80;80.10;;;;;;6217222;23;19911;-76
2023/05/04 23:59:47;;;;;;;;;;;14.80;79.80;;;;;;6244469;23;19910;-76
